createdAt,value
2018-09-27T00:01:14.201Z,1.00
2018-09-27T00:06:17.659Z,1.60
2018-09-27T00:11:21.118Z,3.00
2018-09-27T00:16:24.568Z,2.50
2018-09-27T00:21:28.041Z,0.50
2018-09-27T00:26:31.483Z,2.00
2018-09-27T00:31:34.949Z,1.75
2018-09-27T00:36:38.412Z,1.00
2018-09-27T00:41:41.928Z,1.20
2018-09-27T00:46:45.365Z,1.20
2018-09-27T00:51:48.817Z,3.00
2018-09-27T00:56:52.269Z,1.75
2018-09-27T01:01:55.735Z,1.00
2018-09-27T01:06:59.279Z,1.00
2018-09-27T01:12:02.758Z,0.75
2018-09-27T01:17:06.270Z,1.00
2018-09-27T01:22:09.736Z,2.00
2018-09-27T01:27:13.200Z,0.40
2018-09-27T01:32:16.663Z,2.00
2018-09-27T01:37:20.142Z,0.75
2018-09-27T01:42:23.630Z,0.40
2018-09-27T01:47:27.153Z,1.75
2018-09-27T01:52:30.671Z,2.20
2018-09-27T01:57:34.199Z,1.60
2018-09-27T02:02:37.753Z,1.00
2018-09-27T02:07:41.275Z,1.00
2018-09-27T02:12:44.756Z,2.00
2018-09-27T02:17:48.332Z,0.75
2018-09-27T02:22:52.515Z,0.00
2018-09-27T02:27:56.061Z,1.00
2018-09-27T02:32:59.589Z,1.80
2018-09-27T02:38:03.057Z,0.75
2018-09-27T02:43:06.556Z,1.00
2018-09-27T02:48:10.018Z,0.25
2018-09-27T02:53:13.458Z,1.00
2018-09-27T02:58:16.948Z,1.80
2018-09-27T03:03:20.444Z,0.20
2018-09-27T03:08:23.893Z,0.60
2018-09-27T03:13:27.342Z,0.80
2018-09-27T03:18:30.822Z,0.40
2018-09-27T03:23:34.313Z,2.25
2018-09-27T03:28:37.788Z,1.25
2018-09-27T03:33:41.226Z,1.00
2018-09-27T03:38:44.688Z,0.50
2018-09-27T03:43:48.141Z,0.75
2018-09-27T03:48:51.614Z,2.80
2018-09-27T03:53:55.058Z,0.50
2018-09-27T03:58:59.897Z,0.00
2018-09-27T04:04:03.600Z,1.40
2018-09-27T04:09:08.592Z,0.00
2018-09-27T04:14:12.083Z,1.00
2018-09-27T04:19:15.564Z,0.60
2018-09-27T04:24:19.013Z,0.75
2018-09-27T04:29:22.618Z,1.20
2018-09-27T04:34:26.143Z,0.75
2018-09-27T04:39:29.716Z,0.00
2018-09-27T04:44:33.212Z,1.00
2018-09-27T04:49:36.682Z,1.20
2018-09-27T04:54:40.234Z,0.00
2018-09-27T04:59:43.696Z,0.00
2018-09-27T05:04:47.215Z,0.00
2018-09-27T05:09:50.731Z,0.20
2018-09-27T05:14:54.201Z,0.00
2018-09-27T05:19:57.774Z,0.40
2018-09-27T05:25:01.235Z,1.00
2018-09-27T05:30:05.018Z,0.00
2018-09-27T05:35:08.512Z,0.20
2018-09-27T05:40:11.994Z,0.00
2018-09-27T05:45:15.488Z,0.00
2018-09-27T05:50:19.009Z,0.60
2018-09-27T05:55:23.011Z,0.20
2018-09-27T06:00:26.809Z,1.00
2018-09-27T06:05:30.315Z,1.40
2018-09-27T06:10:33.744Z,0.00
2018-09-27T06:15:37.518Z,0.00
2018-09-27T06:20:40.974Z,0.75
2018-09-27T06:25:44.460Z,0.00
2018-09-27T06:30:47.930Z,0.25
2018-09-27T06:35:51.407Z,6.20
2018-09-27T06:40:54.858Z,4.75
2018-09-27T06:45:58.293Z,6.00
2018-09-27T06:51:01.824Z,5.00
2018-09-27T06:56:05.470Z,6.20
2018-09-27T07:01:08.881Z,6.00
2018-09-27T07:06:12.316Z,4.00
2018-09-27T07:11:15.762Z,3.00
2018-09-27T07:16:19.252Z,2.25
2018-09-27T07:21:22.693Z,2.50
2018-09-27T07:26:26.168Z,4.50
2018-09-27T07:31:29.621Z,5.60
2018-09-27T07:36:33.176Z,1.75
2018-09-27T07:41:36.647Z,4.00
2018-09-27T07:46:40.180Z,3.50
2018-09-27T07:51:43.629Z,3.40
2018-09-27T07:56:47.072Z,3.50
2018-09-27T08:02:02.726Z,3.20
2018-09-27T08:07:06.634Z,4.25
2018-09-27T08:12:10.077Z,5.50
2018-09-27T08:17:13.543Z,7.00
2018-09-27T08:22:16.989Z,5.25
2018-09-27T08:27:20.425Z,4.80
2018-09-27T08:32:23.879Z,5.00
2018-09-27T08:37:27.637Z,5.00
2018-09-27T08:42:31.277Z,4.50
2018-09-27T08:47:34.730Z,7.20
2018-09-27T08:52:38.209Z,3.40
2018-09-27T08:57:42.597Z,5.00
2018-09-27T09:02:46.099Z,4.25
2018-09-27T09:07:49.536Z,6.40
2018-09-27T09:12:53.222Z,3.60
2018-09-27T09:17:56.661Z,3.60
2018-09-27T09:23:00.131Z,4.00
2018-09-27T09:28:04.336Z,4.60
2018-09-27T09:33:07.765Z,4.00
2018-09-27T09:38:11.216Z,4.00
2018-09-27T09:43:14.637Z,2.75
2018-09-27T09:48:18.155Z,4.50
2018-09-27T09:53:21.642Z,5.20
2018-09-27T09:58:25.078Z,4.00
2018-09-27T10:03:28.497Z,5.80
2018-09-27T10:08:31.940Z,6.00
2018-09-27T10:13:35.400Z,4.80
2018-09-27T10:18:38.839Z,3.50
2018-09-27T10:23:42.293Z,3.50
2018-09-27T10:28:45.693Z,4.75
2018-09-27T10:33:49.105Z,3.00
2018-09-27T10:38:52.533Z,2.00
2018-09-27T10:43:55.948Z,4.00
2018-09-27T10:48:59.384Z,2.40
2018-09-27T10:54:02.805Z,3.40
2018-09-27T10:59:06.363Z,5.25
2018-09-27T11:04:09.838Z,2.25
2018-09-27T11:09:13.229Z,3.75
2018-09-27T11:14:16.657Z,1.60
2018-09-27T11:19:20.144Z,3.75
2018-09-27T11:24:23.564Z,3.25
2018-09-27T11:29:32.193Z,3.00
2018-09-27T11:34:35.625Z,2.50
2018-09-27T11:39:39.050Z,4.75
2018-09-27T11:44:42.469Z,3.40
2018-09-27T11:49:46.065Z,3.50
2018-09-27T11:54:49.357Z,4.40
2018-09-27T11:59:52.925Z,3.50
2018-09-27T12:04:56.364Z,3.60
2018-09-27T12:09:59.840Z,4.40
2018-09-27T12:20:41.295Z,2.20
2018-09-27T12:25:44.804Z,1.50
2018-09-27T12:30:48.872Z,4.00
2018-09-27T12:35:52.281Z,2.75
2018-09-27T12:40:55.784Z,2.00
2018-09-27T12:45:59.266Z,4.50
2018-09-27T12:51:02.754Z,3.25
2018-09-27T12:56:06.402Z,1.75
2018-09-27T13:01:10.139Z,3.00
2018-09-27T13:06:13.596Z,2.25
2018-09-27T13:11:17.088Z,2.00
2018-09-27T13:16:20.514Z,3.20
2018-09-27T13:21:24.008Z,3.50
2018-09-27T13:26:27.437Z,2.25
2018-09-27T13:31:30.877Z,3.75
2018-09-27T13:36:34.363Z,4.00
2018-09-27T13:41:38.871Z,3.25
2018-09-27T13:46:42.317Z,3.60
2018-09-27T13:51:45.777Z,4.00
2018-09-27T13:56:49.290Z,1.50
2018-09-27T14:01:52.784Z,1.75
2018-09-27T14:06:56.209Z,1.80
2018-09-27T14:11:59.649Z,2.50
2018-09-27T14:17:03.143Z,2.25
2018-09-27T14:22:06.537Z,3.00
2018-09-27T14:27:09.991Z,4.75
2018-09-27T15:05:58.554Z,2.40
2018-09-27T15:11:01.998Z,1.60
2018-09-27T15:16:05.579Z,1.00
2018-09-27T15:21:09.141Z,2.75
2018-09-27T15:26:13.465Z,2.50
2018-09-27T15:31:16.954Z,1.80
2018-09-27T15:36:20.467Z,3.60
2018-09-27T15:41:23.981Z,2.50
2018-09-27T15:46:27.483Z,3.00
2018-09-27T15:51:31.039Z,2.75
2018-09-27T15:56:34.457Z,2.75
2018-09-27T16:01:37.938Z,5.00
2018-09-27T16:06:41.433Z,9.00
2018-09-27T16:11:44.975Z,8.00
2018-09-27T16:16:48.412Z,26.80
2018-09-27T16:21:51.871Z,22.50
2018-09-27T16:26:55.373Z,21.00
2018-09-27T16:31:58.836Z,18.25
2018-09-27T16:37:02.350Z,20.00
2018-09-27T16:42:05.864Z,21.00
2018-09-27T16:47:09.313Z,19.25
2018-09-27T16:52:12.750Z,16.60
2018-09-27T16:57:16.207Z,15.80
2018-09-27T17:02:19.612Z,16.25
2018-09-27T17:07:23.042Z,14.25
2018-09-27T17:12:26.476Z,16.00
2018-09-27T17:17:29.935Z,14.00
2018-09-27T17:22:33.430Z,13.80
2018-09-27T17:27:36.836Z,17.00
2018-09-27T17:32:43.605Z,13.00
2018-09-27T17:37:50.478Z,16.00
2018-09-27T17:42:53.985Z,12.25
2018-09-27T17:47:57.474Z,11.80
2018-09-27T17:53:01.018Z,14.50
2018-09-27T17:58:04.465Z,12.20
2018-09-27T18:03:07.907Z,12.75
2018-09-27T18:08:11.367Z,14.00
2018-09-27T18:13:14.898Z,10.20
2018-09-27T18:18:18.382Z,11.20
2018-09-27T18:23:21.834Z,10.00
2018-09-27T18:28:25.254Z,11.25
2018-09-27T18:33:28.697Z,13.75
2018-09-27T18:38:32.166Z,8.25
2018-09-27T18:43:35.697Z,10.40
2018-09-27T18:48:39.121Z,9.75
2018-09-27T18:53:42.564Z,9.75
2018-09-27T18:58:46.184Z,9.60
2018-09-27T19:03:49.697Z,10.80
2018-09-27T19:08:53.200Z,15.50
2018-09-27T19:13:56.678Z,7.60
2018-09-27T19:19:00.220Z,13.50
2018-09-27T19:24:03.725Z,11.50
2018-09-27T19:29:07.253Z,10.50
2018-09-27T19:34:10.811Z,7.75
2018-09-27T19:39:20.119Z,8.75
2018-09-27T19:44:23.675Z,10.50
2018-09-27T19:49:27.166Z,10.50
2018-09-27T19:54:30.942Z,10.20
2018-09-27T19:59:34.417Z,11.75
2018-09-27T20:04:38.327Z,8.75
2018-09-27T20:09:41.761Z,9.20
2018-09-27T20:14:45.169Z,8.00
2018-09-27T20:19:48.577Z,8.60
2018-09-27T20:24:52.017Z,8.75
2018-09-27T20:29:55.481Z,7.50
2018-09-27T20:34:58.974Z,9.80
2018-09-27T20:40:02.373Z,8.40
2018-09-27T20:45:07.285Z,11.33
2018-09-27T20:50:10.710Z,9.60
2018-09-27T20:55:14.118Z,10.50
2018-09-27T21:00:17.577Z,9.80
2018-09-27T21:05:21.034Z,9.00
2018-09-27T21:10:24.450Z,10.00
2018-09-27T21:15:27.869Z,10.25
2018-09-27T21:20:31.378Z,9.80
2018-09-27T21:25:34.829Z,10.00
2018-09-27T21:30:38.305Z,9.00
2018-09-27T21:35:41.776Z,8.50
2018-09-27T21:40:45.256Z,10.80
2018-09-27T21:45:48.767Z,10.00
2018-09-27T21:50:52.212Z,10.00
2018-09-27T21:55:55.636Z,8.00
2018-09-27T22:00:59.073Z,10.80
2018-09-27T22:06:02.552Z,9.25
2018-09-27T22:11:05.999Z,8.75
2018-09-27T22:16:09.472Z,7.50
2018-09-27T22:21:12.933Z,8.00
2018-09-27T22:26:16.356Z,8.80
2018-09-27T22:31:19.796Z,8.00
2018-09-27T22:36:23.273Z,8.20
2018-09-27T22:41:26.706Z,8.00
2018-09-27T22:46:30.401Z,9.00
2018-09-27T22:51:33.926Z,9.00
2018-09-27T22:56:37.394Z,9.40
2018-09-27T23:01:40.817Z,7.25
2018-09-27T23:06:44.293Z,9.80
2018-09-27T23:11:47.718Z,10.00
2018-09-27T23:16:51.169Z,7.80
2018-09-27T23:21:54.612Z,8.75
2018-09-27T23:26:58.038Z,7.80
2018-09-27T23:32:01.452Z,8.25
2018-09-27T23:37:04.872Z,7.50
2018-09-27T23:42:08.298Z,7.20
2018-09-27T23:47:11.732Z,6.20
2018-09-27T23:52:15.164Z,6.80
2018-09-27T23:57:18.604Z,7.00
